Time;durP1;ratioP1;P1;durP2;ratioP2;P2;SDS_P1;SDS_P2;PMS_P1;PMS_P2;Temp;Humidity;BMP_temperature;BMP_pressure;BME280_temperature;BME280_humidity;BME280_pressure;Samples;Min_cycle;Max_cycle;Signal;HPM_P1;HPM_P2
2022/07/18 00:01:32;;;;;;;0.20;0.20;;;;;;;15.62;98.97;101002.91;5025523;28;20028;-70
2022/07/18 00:03:58;;;;;;;0.25;0.25;;;;;;;15.56;99.04;101001.25;5043260;28;20032;-70
2022/07/18 00:06:24;;;;;;;0.20;0.20;;;;;;;15.65;98.73;101001.97;5043231;28;20029;-70
2022/07/18 00:08:49;;;;;;;0.20;0.20;;;;;;;15.71;99.02;101007.06;5043279;28;20022;-70
2022/07/18 00:11:15;;;;;;;1.50;1.40;;;;;;;15.71;99.11;101014.94;5043338;28;20028;-70
2022/07/18 00:13:40;;;;;;;0.20;0.20;;;;;;;15.77;98.88;101016.56;5043150;28;20022;-70
2022/07/18 00:16:06;;;;;;;0.82;0.82;;;;;;;15.79;98.72;101010.41;5043290;28;20025;-70
2022/07/18 00:18:31;;;;;;;0.20;0.20;;;;;;;15.72;99.22;101019.25;5043175;28;20025;-70
2022/07/18 00:20:56;;;;;;;0.20;0.20;;;;;;;15.71;98.92;101009.69;5043078;28;20207;-70
2022/07/18 00:23:22;;;;;;;0.20;0.20;;;;;;;15.73;99.05;101007.91;5043150;28;20024;-70
2022/07/18 00:25:47;;;;;;;0.50;0.50;;;;;;;15.71;98.85;101014.94;5043417;28;20104;-70
2022/07/18 00:28:13;;;;;;;0.30;0.30;;;;;;;15.76;98.71;101012.22;5042960;28;20085;-69
2022/07/18 00:30:39;;;;;;;0.20;0.20;;;;;;;15.74;99.02;101017.47;5043103;28;20017;-70
2022/07/18 00:33:05;;;;;;;0.20;0.20;;;;;;;15.77;98.84;101000.88;5043058;28;20081;-69
2022/07/18 00:35:30;;;;;;;0.40;0.40;;;;;;;15.74;98.67;101025.34;5043193;28;20021;-69
2022/07/18 00:37:56;;;;;;;0.20;0.20;;;;;;;15.73;98.72;101018.38;5025204;28;20036;-69
2022/07/18 00:40:21;;;;;;;0.20;0.20;;;;;;;15.74;98.88;101015.75;5042804;28;20022;-69
2022/07/18 00:42:47;;;;;;;0.20;0.20;;;;;;;15.74;98.86;101017.47;5025104;28;20026;-69
2022/07/18 00:45:12;;;;;;;0.25;0.25;;;;;;;15.76;98.86;101023.56;5043060;28;20033;-70
2022/07/18 00:47:39;;;;;;;0.30;0.30;;;;;;;15.79;99.19;101022.63;5042830;28;20095;-70
2022/07/18 00:50:07;;;;;;;0.20;0.20;;;;;;;15.82;98.97;101022.56;5042955;28;20461;-71
2022/07/18 00:52:32;;;;;;;0.22;0.22;;;;;;;15.81;99.14;101020.84;5044816;28;20105;-70
2022/07/18 00:54:58;;;;;;;0.20;0.20;;;;;;;15.78;98.99;101019.16;5046608;28;20026;-71
2022/07/18 00:57:24;;;;;;;0.30;0.30;;;;;;;15.84;98.62;101021.66;5046540;28;20512;-71
2022/07/18 01:02:33;;;;;;;0.22;0.22;;;;;;;15.77;99.09;101014.81;5046580;28;20035;-70
2022/07/18 01:04:59;;;;;;;0.20;0.20;;;;;;;15.79;99.06;101022.63;5046580;28;20044;-70
2022/07/18 01:07:24;;;;;;;0.20;0.20;;;;;;;15.81;98.65;101026.09;5046404;28;20044;-70
2022/07/18 01:09:49;;;;;;;0.20;0.20;;;;;;;15.84;98.64;101015.53;5046391;28;20026;-70
2022/07/18 01:12:15;;;;;;;0.20;0.20;;;;;;;15.86;98.75;101009.38;5046193;28;20022;-71
2022/07/18 01:14:41;;;;;;;0.20;0.20;;;;;;;15.81;98.79;101006.00;5046236;28;20026;-70
2022/07/18 01:17:17;;;;;;;0.20;0.20;;;;;;;15.86;99.00;101009.38;5046383;28;20030;-70
2022/07/18 01:19:43;;;;;;;0.30;0.30;;;;;;;15.79;99.01;101018.25;5046482;28;20021;-70
2022/07/18 01:22:09;;;;;;;0.20;0.20;;;;;;;15.81;99.08;101013.88;5046256;28;20442;-70
2022/07/18 01:24:34;;;;;;;3.60;2.10;;;;;;;15.82;98.88;101007.72;5046269;28;20049;-70
2022/07/18 01:27:00;;;;;;;0.20;0.20;;;;;;;15.81;98.87;101015.59;5046050;28;20024;-70
2022/07/18 01:29:25;;;;;;;0.20;0.20;;;;;;;15.84;98.96;101016.41;5046093;28;20040;-70
2022/07/18 01:31:51;;;;;;;0.75;0.75;;;;;;;15.79;98.94;101007.78;5046046;28;20032;-70
2022/07/18 01:34:21;;;;;;;0.40;0.40;;;;;;;15.83;98.53;101011.22;5046053;28;20103;-70
2022/07/18 01:36:47;;;;;;;0.30;0.30;;;;;;;15.79;98.66;101005.16;5046229;28;20107;-70
2022/07/18 01:39:13;;;;;;;0.20;0.20;;;;;;;15.79;99.17;101001.69;5045936;28;20041;-70
2022/07/18 01:41:38;;;;;;;0.30;0.30;;;;;;;15.71;98.79;101005.34;5045828;28;20048;-70
2022/07/18 01:44:03;;;;;;;0.20;0.20;;;;;;;15.73;98.72;101003.53;5045819;28;20397;-71
2022/07/18 01:46:29;;;;;;;1.52;1.52;;;;;;;15.77;98.62;101004.31;5045865;28;20512;-70
2022/07/18 01:48:55;;;;;;;0.20;0.20;;;;;;;15.77;98.95;100998.25;5045836;28;20033;-70
2022/07/18 01:51:21;;;;;;;0.20;0.20;;;;;;;15.72;98.85;100993.09;5045614;28;20029;-70
2022/07/18 01:53:58;;;;;;;0.43;0.43;;;;;;;15.78;98.57;100990.38;5045882;28;20079;-70
2022/07/18 01:56:24;;;;;;;0.20;0.20;;;;;;;15.77;98.88;100993.84;5045624;28;20108;-70
2022/07/18 01:58:49;;;;;;;0.20;0.20;;;;;;;15.79;98.77;100985.97;5045522;28;20028;-70
2022/07/18 02:01:14;;;;;;;0.20;0.20;;;;;;;15.78;98.85;100987.75;5045514;28;20018;-70
2022/07/18 02:03:40;;;;;;;0.20;0.20;;;;;;;15.78;98.98;100985.13;5044649;28;20037;-70
2022/07/18 02:06:05;;;;;;;0.65;0.65;;;;;;;15.77;98.79;100985.16;5045389;28;20036;-71
2022/07/18 02:08:30;;;;;;;0.20;0.20;;;;;;;15.73;99.16;100987.81;5045445;28;20048;-71
2022/07/18 02:10:56;;;;;;;0.20;0.20;;;;;;;15.78;98.61;100982.50;5045265;28;20021;-70
2022/07/18 02:13:21;;;;;;;0.20;0.20;;;;;;;15.77;99.16;100975.53;5045141;28;20081;-70
2022/07/18 02:15:47;;;;;;;0.20;0.20;;;;;;;15.81;99.26;100982.44;5045298;28;20025;-70
2022/07/18 02:18:12;;;;;;;0.28;0.28;;;;;;;15.81;99.50;100981.56;5045538;28;20025;-71
2022/07/18 02:20:38;;;;;;;0.30;0.30;;;;;;;15.84;99.04;100982.38;5045142;28;20075;-71
2022/07/18 02:23:04;;;;;;;2.08;1.48;;;;;;;15.77;99.55;100974.69;5045261;28;20025;-70
2022/07/18 02:25:29;;;;;;;0.82;0.82;;;;;;;15.86;99.34;100984.97;5045072;28;20521;-70
2022/07/18 02:27:55;;;;;;;0.20;0.20;;;;;;;15.85;99.39;100976.25;5045131;28;20045;-70
2022/07/18 02:30:21;;;;;;;0.20;0.20;;;;;;;15.89;99.59;100976.16;5045037;28;20104;-71
2022/07/18 02:32:47;;;;;;;0.20;0.20;;;;;;;15.90;99.28;100972.66;5044845;28;20028;-70
2022/07/18 02:35:12;;;;;;;0.20;0.20;;;;;;;15.92;99.36;100970.88;5044880;28;20029;-70
2022/07/18 02:37:40;;;;;;;0.20;0.20;;;;;;;15.91;99.13;100969.16;5045025;28;20060;-70
2022/07/18 02:40:10;;;;;;;0.30;0.30;;;;;;;15.90;99.33;100968.28;5044919;28;20025;-71
2022/07/18 02:42:36;;;;;;;0.30;0.30;;;;;;;15.92;99.14;100965.63;5044513;28;20041;-71
2022/07/18 02:45:01;;;;;;;0.40;0.40;;;;;;;15.91;99.40;100964.75;5044711;28;20032;-71
2022/07/18 02:47:27;;;;;;;0.30;0.30;;;;;;;15.93;99.50;100968.22;5044770;28;20029;-71
2022/07/18 02:49:52;;;;;;;3.85;3.50;;;;;;;15.90;99.54;100972.66;5044682;28;20246;-71
2022/07/18 02:52:18;;;;;;;0.63;0.63;;;;;;;15.91;99.09;100969.16;5044440;28;20022;-70
2022/07/18 02:54:43;;;;;;;1.08;1.00;;;;;;;15.95;99.24;100974.28;5044600;28;20047;-71
2022/07/18 02:57:09;;;;;;;2.05;1.95;;;;;;;15.93;99.38;100965.59;5026458;28;20041;-70
2022/07/18 02:59:34;;;;;;;1.20;0.50;;;;;;;15.94;99.48;100967.31;5044504;28;20021;-71
2022/07/18 03:02:00;;;;;;;0.30;0.30;;;;;;;15.96;99.50;100968.16;5044300;28;20025;-70
2022/07/18 03:04:25;;;;;;;1.02;0.93;;;;;;;15.95;99.56;100970.81;5044628;28;20095;-70
2022/07/18 03:06:51;;;;;;;0.20;0.20;;;;;;;16.01;99.34;100967.22;5044430;28;20056;-71
2022/07/18 03:09:17;;;;;;;0.45;0.45;;;;;;;16.05;99.32;100974.13;5044247;28;20025;-71
2022/07/18 03:11:42;;;;;;;0.20;0.20;;;;;;;16.02;99.33;100971.56;5044147;28;20029;-71
2022/07/18 03:14:08;;;;;;;0.20;0.20;;;;;;;16.07;99.15;100974.94;5044258;28;20076;-71
2022/07/18 03:16:34;;;;;;;0.20;0.20;;;;;;;16.07;99.24;100982.81;5044051;28;20469;-70
2022/07/18 03:18:59;;;;;;;0.20;0.20;;;;;;;16.07;99.38;100974.94;5044170;28;20085;-71
2022/07/18 03:21:25;;;;;;;0.30;0.30;;;;;;;16.06;99.46;100981.06;5043948;28;20018;-71
2022/07/18 03:23:51;;;;;;;0.20;0.20;;;;;;;16.11;99.48;100979.22;5042717;28;20021;-71
2022/07/18 03:26:16;;;;;;;0.20;0.20;;;;;;;16.07;99.30;100985.44;5044077;28;20028;-70
2022/07/18 03:28:41;;;;;;;0.20;0.20;;;;;;;16.09;99.21;100975.75;5043959;28;20029;-71
2022/07/18 03:31:07;;;;;;;0.20;0.20;;;;;;;16.12;99.38;100967.81;5025877;28;20056;-71
2022/07/18 03:33:32;;;;;;;0.40;0.40;;;;;;;16.09;99.26;100975.75;5043852;28;20041;-70
2022/07/18 03:35:57;;;;;;;0.20;0.20;;;;;;;16.14;99.20;100975.66;5043956;28;20029;-70
2022/07/18 03:38:23;;;;;;;0.30;0.30;;;;;;;16.13;99.34;100973.94;5044003;28;20052;-70
2022/07/18 03:40:49;;;;;;;0.50;0.50;;;;;;;16.16;99.28;100989.59;5043594;28;20046;-70
2022/07/18 03:43:14;;;;;;;0.30;0.30;;;;;;;16.19;99.21;100969.44;5043717;28;20033;-70
2022/07/18 03:45:39;;;;;;;0.35;0.35;;;;;;;16.24;99.27;100971.94;5043585;28;20057;-70
2022/07/18 03:48:05;;;;;;;0.40;0.40;;;;;;;16.21;99.55;100964.16;5043713;28;20025;-70
2022/07/18 03:50:31;;;;;;;0.20;0.20;;;;;;;16.25;99.14;100964.91;5043574;28;20018;-71
2022/07/18 03:52:57;;;;;;;0.52;0.52;;;;;;;16.26;99.53;100970.16;5043519;28;20528;-71
2022/07/18 03:55:23;;;;;;;0.32;0.32;;;;;;;16.24;99.59;100971.94;5043509;28;20040;-71
2022/07/18 03:57:48;;;;;;;0.65;0.65;;;;;;;16.28;99.32;100967.50;5043357;28;20098;-71
2022/07/18 04:00:14;;;;;;;0.20;0.20;;;;;;;16.34;99.16;100973.44;5043600;28;20087;-71
2022/07/18 04:02:44;;;;;;;0.30;0.30;;;;;;;16.38;98.99;100975.97;5025477;28;20084;-71
2022/07/18 04:05:10;;;;;;;0.20;0.20;;;;;;;16.42;99.24;100975.03;5043496;28;20044;-71
2022/07/18 04:07:36;;;;;;;0.20;0.20;;;;;;;16.41;99.50;100976.78;5043494;28;20017;-70
2022/07/18 04:10:03;;;;;;;0.20;0.20;;;;;;;16.26;99.17;100956.19;5043328;28;20085;-71
2022/07/18 04:12:28;;;;;;;0.20;0.20;;;;;;;16.44;99.07;100973.22;5043119;28;20028;-71
2022/07/18 04:14:54;;;;;;;0.20;0.20;;;;;;;16.46;98.82;100974.03;5043240;28;20021;-69
2022/07/18 04:17:19;;;;;;;0.25;0.25;;;;;;;16.45;99.05;100969.72;5043288;28;20048;-69
2022/07/18 04:19:44;;;;;;;0.20;0.20;;;;;;;16.47;98.83;100973.13;5043247;28;20026;-69
2022/07/18 04:22:10;;;;;;;0.30;0.30;;;;;;;16.46;98.65;100972.28;5043153;28;20052;-69
2022/07/18 04:24:35;;;;;;;0.20;0.20;;;;;;;16.52;98.64;100965.19;5043237;28;20049;-69
2022/07/18 04:27:00;;;;;;;0.20;0.20;;;;;;;16.47;98.41;100960.03;5044592;28;20370;-69
2022/07/18 04:29:26;;;;;;;0.40;0.40;;;;;;;16.55;98.44;100960.72;5047874;28;20076;-69
2022/07/18 04:31:51;;;;;;;0.52;0.52;;;;;;;16.54;98.27;100961.63;5047390;28;20029;-70
2022/07/18 04:34:17;;;;;;;1.25;1.17;;;;;;;16.52;98.13;100966.03;5047375;28;20064;-70
2022/07/18 04:36:42;;;;;;;0.30;0.30;;;;;;;16.59;98.13;100957.13;5047290;28;20025;-70
2022/07/18 04:39:08;;;;;;;0.20;0.20;;;;;;;16.66;98.42;100952.56;5047160;28;20049;-70
2022/07/18 04:41:33;;;;;;;0.30;0.30;;;;;;;16.69;97.85;100952.50;5046867;28;20563;-70
2022/07/18 04:43:58;;;;;;;0.20;0.20;;;;;;;16.65;97.69;100958.72;5046933;28;20029;-70
2022/07/18 04:46:24;;;;;;;0.20;0.20;;;;;;;16.71;97.54;100957.69;5046761;28;20160;-70
2022/07/18 04:48:49;;;;;;;12.93;2.20;;;;;;;16.73;97.28;100953.28;5046868;28;20428;-70
2022/07/18 04:51:15;;;;;;;0.45;0.45;;;;;;;16.76;97.33;100955.00;5046653;28;20081;-70
2022/07/18 04:53:40;;;;;;;0.20;0.20;;;;;;;16.80;96.51;100962.75;5046550;28;20029;-70
2022/07/18 04:56:05;;;;;;;0.20;0.20;;;;;;;16.91;97.08;100964.22;5046571;28;20061;-70
2022/07/18 04:58:31;;;;;;;0.30;0.30;;;;;;;16.92;96.88;100963.28;5046476;28;20021;-70
2022/07/18 05:00:56;;;;;;;0.30;0.30;;;;;;;16.94;96.46;100964.13;5046797;28;20501;-70
2022/07/18 05:03:22;;;;;;;0.20;0.20;;;;;;;16.96;96.63;100960.53;5046536;28;20079;-69
2022/07/18 05:05:47;;;;;;;0.20;0.20;;;;;;;16.89;96.36;100947.63;5046778;28;20026;-71
2022/07/18 05:08:13;;;;;;;0.55;0.55;;;;;;;16.98;96.31;100955.28;5046749;28;20100;-70
2022/07/18 05:10:40;;;;;;;0.20;0.20;;;;;;;16.91;95.64;100961.59;5046398;28;20031;-70
2022/07/18 05:13:05;;;;;;;4.60;1.10;;;;;;;16.95;95.45;100969.31;5046231;28;20109;-69
2022/07/18 05:15:31;;;;;;;0.30;0.30;;;;;;;16.90;95.45;100960.72;5046448;28;20444;-70
2022/07/18 05:17:56;;;;;;;0.20;0.20;;;;;;;16.87;95.56;100965.19;5046427;28;20099;-70
2022/07/18 05:20:24;;;;;;;0.30;0.30;;;;;;;16.91;95.44;100970.31;5046516;28;20024;-70
2022/07/18 05:22:51;;;;;;;0.20;0.20;;;;;;;16.90;96.10;100970.38;5046162;28;20014;-69
2022/07/18 05:25:17;;;;;;;0.20;0.20;;;;;;;16.89;96.08;100958.13;5046177;28;20018;-69
2022/07/18 05:27:43;;;;;;;0.20;0.20;;;;;;;16.86;95.47;100959.09;5046080;28;20018;-69
2022/07/18 05:30:11;;;;;;;0.20;0.20;;;;;;;16.88;95.21;100966.91;5046338;28;20043;-69
2022/07/18 05:32:36;;;;;;;0.20;0.20;;;;;;;16.96;95.22;100964.94;5046143;28;20026;-70
2022/07/18 05:35:02;;;;;;;1.48;1.38;;;;;;;16.97;95.50;100964.91;5046203;28;20302;-70
2022/07/18 05:37:28;;;;;;;0.30;0.30;;;;;;;16.98;95.71;100961.38;5046165;28;20097;-70
2022/07/18 05:39:53;;;;;;;0.30;0.30;;;;;;;17.05;95.22;100959.47;5044852;28;20029;-70
2022/07/18 05:42:19;;;;;;;0.20;0.20;;;;;;;17.02;94.69;100967.41;5045598;28;20049;-70
2022/07/18 05:44:45;;;;;;;0.22;0.22;;;;;;;17.00;94.87;100973.63;5045702;28;20030;-70
2022/07/18 05:47:10;;;;;;;0.20;0.20;;;;;;;16.99;94.41;100975.38;5045775;28;20025;-70
2022/07/18 05:49:36;;;;;;;0.30;0.30;;;;;;;16.99;94.44;100975.38;5045688;28;20025;-70
2022/07/18 05:52:02;;;;;;;4.28;3.05;;;;;;;17.02;94.55;100974.41;5045564;28;20079;-70
2022/07/18 05:54:27;;;;;;;0.40;0.40;;;;;;;16.98;94.00;100960.53;5045589;28;20029;-70
2022/07/18 05:56:53;;;;;;;0.20;0.20;;;;;;;17.08;94.37;100972.53;5045521;28;20358;-71
2022/07/18 05:59:19;;;;;;;0.40;0.40;;;;;;;17.06;93.96;100976.91;5045411;28;20109;-70
2022/07/18 06:01:45;;;;;;;0.22;0.22;;;;;;;17.10;94.16;100982.97;5045773;28;20025;-70
2022/07/18 06:04:11;;;;;;;0.20;0.20;;;;;;;17.02;93.92;100964.78;5045507;28;20558;-70
2022/07/18 06:06:36;;;;;;;1.05;0.95;;;;;;;17.04;93.65;100960.38;5045420;28;20036;-70
2022/07/18 06:09:03;;;;;;;0.20;0.20;;;;;;;17.12;94.23;100948.81;5045375;28;20048;-70
2022/07/18 06:11:28;;;;;;;0.20;0.20;;;;;;;17.09;93.90;100958.50;5045310;28;20072;-70
2022/07/18 06:13:53;;;;;;;0.20;0.20;;;;;;;17.10;94.00;100972.47;5045215;28;20396;-70
2022/07/18 06:16:19;;;;;;;0.20;0.20;;;;;;;17.11;93.75;100958.44;5045156;28;20029;-70
2022/07/18 06:18:44;;;;;;;0.40;0.40;;;;;;;17.10;93.58;100954.13;5045204;28;20021;-70
2022/07/18 06:21:10;;;;;;;0.35;0.35;;;;;;;17.00;92.97;100963.97;5045086;28;20029;-70
2022/07/18 06:23:35;;;;;;;0.30;0.30;;;;;;;16.93;93.32;100965.88;5045138;28;20036;-70
2022/07/18 06:26:02;;;;;;;0.28;0.28;;;;;;;16.95;nan;100952.72;5045064;28;20034;-70
2022/07/18 06:28:28;;;;;;;0.20;0.20;;;;;;;17.02;94.01;100958.66;5027231;28;20056;-70
2022/07/18 06:30:53;;;;;;;1.85;1.52;;;;;;;17.15;93.54;100967.97;5044928;28;20035;-70
2022/07/18 06:33:19;;;;;;;2.78;2.58;;;;;;;17.16;93.13;100968.81;5044904;28;20272;-70
2022/07/18 06:35:46;;;;;;;0.25;0.25;;;;;;;17.15;92.84;100970.59;5027133;28;20402;-70
2022/07/18 06:38:12;;;;;;;0.50;0.50;;;;;;;17.07;91.84;100976.03;5044968;28;20085;-70
2022/07/18 06:40:38;;;;;;;0.20;0.20;;;;;;;17.07;92.19;100978.66;5044519;28;20049;-70
2022/07/18 06:43:03;;;;;;;2.17;1.50;;;;;;;17.03;92.55;100974.38;5044673;28;20022;-70
2022/07/18 06:45:29;;;;;;;0.20;0.20;;;;;;;16.94;92.05;100974.63;5044763;28;20037;-69
2022/07/18 06:47:54;;;;;;;0.20;0.20;;;;;;;16.90;92.17;100960.72;5044714;28;20032;-70
2022/07/18 06:50:20;;;;;;;0.52;0.52;;;;;;;16.92;91.83;100963.28;5044291;28;20033;-69
2022/07/18 06:52:46;;;;;;;0.20;0.20;;;;;;;16.84;91.92;100966.13;5044306;28;20174;-69
2022/07/18 06:55:13;;;;;;;0.20;0.20;;;;;;;16.87;92.55;100968.66;5044611;28;20029;-69
2022/07/18 06:57:40;;;;;;;0.20;0.20;;;;;;;16.87;92.53;100955.53;5044289;28;20025;-69
2022/07/18 07:00:08;;;;;;;0.30;0.30;;;;;;;16.83;92.13;100961.78;5044336;28;20033;-69
2022/07/18 07:02:34;;;;;;;0.50;0.50;;;;;;;16.76;92.03;100947.13;5044422;28;20032;-69
2022/07/18 07:04:59;;;;;;;0.20;0.20;;;;;;;16.72;92.49;100948.97;5044226;28;20112;-70
2022/07/18 07:07:24;;;;;;;0.40;0.40;;;;;;;16.66;92.66;100962.22;5026414;28;20028;-69
2022/07/18 07:09:50;;;;;;;0.55;0.47;;;;;;;16.62;92.53;100971.03;5044222;28;20079;-68
2022/07/18 07:12:15;;;;;;;0.35;0.35;;;;;;;16.52;93.34;100968.66;5043857;28;20025;-68
2022/07/18 07:14:41;;;;;;;0.20;0.20;;;;;;;16.56;93.41;100962.47;5044095;28;20075;-68
2022/07/18 07:17:06;;;;;;;0.20;0.20;;;;;;;16.53;94.03;100952.03;5043809;28;20052;-69
2022/07/18 07:19:32;;;;;;;0.20;0.20;;;;;;;16.47;93.95;100954.78;5043898;28;20021;-69
2022/07/18 07:21:57;;;;;;;0.30;0.30;;;;;;;16.46;94.35;100966.19;5043944;28;20057;-69
2022/07/18 07:24:22;;;;;;;0.30;0.30;;;;;;;16.45;94.55;100962.69;5043968;28;20049;-69
2022/07/18 07:26:48;;;;;;;0.30;0.30;;;;;;;16.53;95.23;100959.91;5044059;28;20040;-71
2022/07/18 07:29:14;;;;;;;0.95;0.95;;;;;;;16.56;95.00;100958.97;5043932;28;20025;-69
2022/07/18 07:31:41;;;;;;;0.20;0.20;;;;;;;16.63;95.36;100952.66;5043696;28;20026;-69
2022/07/18 07:34:07;;;;;;;0.20;0.20;;;;;;;16.70;95.62;100949.00;5043683;28;20049;-68
2022/07/18 07:36:33;;;;;;;0.20;0.20;;;;;;;16.78;95.85;100946.16;5043788;28;20026;-69
2022/07/18 07:38:58;;;;;;;0.93;0.93;;;;;;;16.89;95.60;100940.66;5043704;28;20026;-70
2022/07/18 07:41:24;;;;;;;0.40;0.40;;;;;;;16.88;95.74;100948.56;5043514;28;20038;-69
2022/07/18 07:43:49;;;;;;;0.28;0.28;;;;;;;16.93;96.14;100957.16;5043605;28;20034;-69
2022/07/18 07:46:14;;;;;;;0.57;0.57;;;;;;;16.92;95.93;100958.91;5043588;28;20025;-70
2022/07/18 07:48:40;;;;;;;0.20;0.20;;;;;;;16.95;95.16;100963.22;5043473;28;20438;-69
2022/07/18 07:51:06;;;;;;;0.20;0.20;;;;;;;16.96;95.35;100954.47;5043733;28;20025;-69
2022/07/18 07:53:32;;;;;;;1.40;1.30;;;;;;;16.92;95.13;100955.44;5043422;28;20069;-69
2022/07/18 07:55:58;;;;;;;0.35;0.35;;;;;;;16.91;95.09;100957.22;5043706;28;20032;-69
2022/07/18 07:58:23;;;;;;;0.82;0.70;;;;;;;16.84;95.01;100955.63;5043623;28;20100;-68
2022/07/18 08:00:48;;;;;;;0.30;0.30;;;;;;;16.76;94.83;100955.00;5043360;28;20480;-68
2022/07/18 08:03:14;;;;;;;0.20;0.20;;;;;;;16.68;95.36;100966.50;5042762;28;20024;-69
2022/07/18 08:05:48;;;;;;;0.20;0.20;;;;;;;16.66;94.76;100972.72;5043352;28;20531;-67
2022/07/18 08:08:14;;;;;;;0.20;0.20;;;;;;;16.58;94.66;100973.75;5043367;28;20018;-68
2022/07/18 08:10:39;;;;;;;0.95;0.95;;;;;;;16.51;94.81;100974.81;5043267;28;20022;-67
2022/07/18 08:13:04;;;;;;;0.70;0.70;;;;;;;16.50;94.98;100977.47;5043233;28;20036;-67
2022/07/18 08:15:30;;;;;;;1.00;1.00;;;;;;;16.45;95.30;100980.19;5043418;28;20037;-67
2022/07/18 08:17:56;;;;;;;0.20;0.20;;;;;;;16.47;95.63;100973.13;5043147;28;20025;-67
2022/07/18 08:20:22;;;;;;;0.22;0.22;;;;;;;16.44;95.52;100970.59;5042940;28;20030;-68
2022/07/18 08:22:58;;;;;;;0.20;0.20;;;;;;;16.50;95.65;100973.09;5043161;28;20029;-67
2022/07/18 08:25:25;;;;;;;10.15;1.75;;;;;;;16.47;96.01;100962.66;5043388;28;20022;-67
2022/07/18 08:27:51;;;;;;;0.22;0.22;;;;;;;16.53;95.97;100962.53;5043243;28;20057;-70
2022/07/18 08:30:16;;;;;;;2.47;1.75;;;;;;;16.55;96.30;100971.19;5043208;28;20060;-68
2022/07/18 08:32:42;;;;;;;0.35;0.35;;;;;;;16.53;96.11;100964.28;5042836;28;20025;-68
2022/07/18 08:35:08;;;;;;;0.20;0.20;;;;;;;16.57;95.98;100968.53;5043039;28;20254;-68
2022/07/18 08:37:33;;;;;;;0.30;0.30;;;;;;;16.57;96.04;100961.53;5043026;28;20029;-68
2022/07/18 08:39:58;;;;;;;0.35;0.35;;;;;;;16.57;96.39;100961.53;5042942;28;20030;-67
2022/07/18 08:42:26;;;;;;;0.30;0.30;;;;;;;16.62;96.91;100952.69;5042650;28;20046;-67
2022/07/18 08:44:56;;;;;;;0.40;0.40;;;;;;;16.65;96.69;100948.25;5043102;28;20033;-69
2022/07/18 08:47:23;;;;;;;0.20;0.20;;;;;;;16.71;96.71;100950.72;5043031;28;20017;-68
2022/07/18 08:49:49;;;;;;;0.75;0.75;;;;;;;16.75;96.95;100956.75;5042928;28;20029;-69
2022/07/18 08:52:15;;;;;;;0.20;0.20;;;;;;;16.77;96.85;100948.84;5043101;28;20053;-69
2022/07/18 08:54:42;;;;;;;0.43;0.43;;;;;;;16.78;96.49;100951.41;5042887;28;20463;-69
2022/07/18 08:57:07;;;;;;;0.30;0.30;;;;;;;16.79;96.51;100947.88;5042794;28;20028;-63
2022/07/18 08:59:33;;;;;;;0.20;0.20;;;;;;;16.81;96.98;100947.84;5042373;28;20055;-63
2022/07/18 09:01:58;;;;;;;1.15;1.15;;;;;;;16.89;96.91;100937.16;5042860;28;20021;-63
2022/07/18 09:04:37;;;;;;;0.20;0.20;;;;;;;16.92;96.36;100939.69;5042830;28;20063;-63
2022/07/18 09:07:03;;;;;;;0.45;0.45;;;;;;;17.01;96.86;100941.22;5042607;28;20056;-63
2022/07/18 09:09:30;;;;;;;0.22;0.22;;;;;;;17.10;96.77;100948.88;5042684;28;20049;-62
2022/07/18 09:11:59;;;;;;;0.20;0.20;;;;;;;17.21;96.24;100930.22;5042624;28;20112;-63
2022/07/18 09:14:42;;;;;;;0.20;0.20;;;;;;;17.25;96.18;100926.63;5045695;28;20022;-63
2022/07/18 09:17:12;;;;;;;0.55;0.55;;;;;;;17.41;95.69;100927.00;5029163;28;20025;-62
2022/07/18 09:19:43;;;;;;;1.55;0.65;;;;;;;17.44;96.14;100931.31;5046210;28;20487;-63
2022/07/18 09:22:20;;;;;;;1.08;1.00;;;;;;;17.44;94.70;100928.69;5046560;28;20033;-63
2022/07/18 09:24:52;;;;;;;0.20;0.20;;;;;;;17.52;95.02;100924.09;5046073;28;20081;-64
2022/07/18 09:27:44;;;;;;;0.20;0.20;;;;;;;17.47;94.03;100926.00;5045936;28;20461;-64
2022/07/18 09:30:32;;;;;;;1.55;1.45;;;;;;;17.53;93.44;100925.81;5046113;28;20052;-63
2022/07/18 09:33:03;;;;;;;0.40;0.40;;;;;;;17.54;93.47;100910.94;5046071;28;20081;-63
2022/07/18 09:35:32;;;;;;;0.30;0.30;;;;;;;17.44;92.60;100912.97;5045966;28;20147;-64
2022/07/18 09:38:09;;;;;;;0.20;0.20;;;;;;;17.39;92.64;100910.47;5045978;28;20137;-63
2022/07/18 09:40:39;;;;;;;1.33;1.25;;;;;;;17.28;92.71;100897.66;5045435;28;20128;-64
2022/07/18 09:43:10;;;;;;;0.40;0.40;;;;;;;17.21;92.57;100886.47;5045762;28;20108;-63
2022/07/18 09:45:41;;;;;;;1.05;1.05;;;;;;;17.22;92.09;100893.44;5046048;28;20041;-63
2022/07/18 09:48:09;;;;;;;0.63;0.63;;;;;;;17.14;91.82;100905.91;5046164;28;20024;-63
2022/07/18 09:50:36;;;;;;;0.57;0.57;;;;;;;17.16;91.79;100909.34;5045211;28;20025;-63
2022/07/18 09:53:14;;;;;;;0.73;0.73;;;;;;;17.22;91.53;100910.97;5045609;28;20448;-63
2022/07/18 09:55:48;;;;;;;0.30;0.30;;;;;;;17.27;91.24;100906.41;5045687;28;20249;-64
2022/07/18 09:58:17;;;;;;;0.28;0.28;;;;;;;17.44;92.47;100912.97;5045615;28;20022;-63
2022/07/18 10:00:43;;;;;;;1.13;0.93;;;;;;;17.43;90.31;100916.47;5045684;28;20036;-63
2022/07/18 10:03:09;;;;;;;1.90;1.65;;;;;;;17.40;89.66;100919.19;5045384;28;20100;-63
2022/07/18 10:05:39;;;;;;;0.43;0.43;;;;;;;17.45;89.73;100930.41;5045246;28;20040;-63
2022/07/18 10:08:16;;;;;;;2.17;1.40;;;;;;;17.51;89.60;100919.72;5045630;28;20037;-62
2022/07/18 10:10:43;;;;;;;0.20;0.20;;;;;;;17.64;89.77;100927.25;5045524;28;20028;-63
2022/07/18 10:13:09;;;;;;;0.20;0.20;;;;;;;17.69;89.18;100927.97;5027196;28;20018;-62
2022/07/18 10:15:39;;;;;;;0.20;0.20;;;;;;;17.82;89.67;100908.31;5027457;28;20029;-64
2022/07/18 10:18:07;;;;;;;0.77;0.73;;;;;;;17.95;87.56;100907.94;5027337;28;20032;-62
2022/07/18 10:20:41;;;;;;;0.30;0.30;;;;;;;18.16;87.58;100902.94;5045335;28;20077;-64
2022/07/18 10:23:15;;;;;;;0.20;0.20;;;;;;;18.41;88.00;100905.63;5045022;28;20413;-63
2022/07/18 10:25:41;;;;;;;1.48;1.38;;;;;;;18.73;88.83;100904.56;5044345;28;20032;-63
2022/07/18 10:28:12;;;;;;;0.93;0.93;;;;;;;19.02;87.68;100906.16;5045032;28;20033;-65
2022/07/18 10:30:39;;;;;;;0.50;0.50;;;;;;;19.20;84.06;100894.13;5045000;28;20027;-63
2022/07/18 10:33:38;;;;;;;0.20;0.20;;;;;;;19.25;82.61;100890.47;5045011;28;20033;-63
2022/07/18 10:36:09;;;;;;;5.97;3.45;;;;;;;19.42;82.07;100892.47;5045004;28;20040;-63
2022/07/18 10:38:35;;;;;;;0.30;0.30;;;;;;;19.49;80.36;100899.22;5044739;28;20508;-65
2022/07/18 10:41:04;;;;;;;0.40;0.40;;;;;;;19.63;81.08;100897.84;5044833;28;20053;-65
2022/07/18 10:43:32;;;;;;;0.22;0.22;;;;;;;19.71;79.95;100893.13;5044595;28;20022;-65
2022/07/18 10:45:58;;;;;;;0.75;0.75;;;;;;;19.94;81.37;100888.72;5044833;28;20025;-65
2022/07/18 10:48:48;;;;;;;0.30;0.30;;;;;;;20.13;81.54;100890.63;5044736;28;20029;-64
2022/07/18 10:51:15;;;;;;;1.20;0.75;;;;;;;20.05;79.09;100875.13;5038419;28;20460;-65
2022/07/18 10:53:53;;;;;;;0.65;0.65;;;;;;;20.08;78.43;100880.25;5044438;28;20396;-64
2022/07/18 10:56:42;;;;;;;0.52;0.52;;;;;;;20.27;78.59;100880.38;5044652;28;20052;-64
2022/07/18 10:59:35;;;;;;;0.30;0.30;;;;;;;20.59;76.36;100890.47;5044214;28;20044;-63
2022/07/18 11:02:04;;;;;;;0.20;0.20;;;;;;;20.77;74.50;100894.09;5042646;28;20191;-64
2022/07/18 11:04:34;;;;;;;0.20;0.20;;;;;;;20.95;75.89;100888.97;5044441;28;20022;-63
2022/07/18 11:07:04;;;;;;;0.10;0.10;;;;;;;21.45;76.68;100893.78;5044354;28;20028;-64
2022/07/18 11:09:46;;;;;;;0.20;0.20;;;;;;;21.86;72.55;100888.34;5044162;28;20022;-64
2022/07/18 11:12:30;;;;;;;1.00;0.88;;;;;;;21.99;72.69;100890.38;5044227;28;20081;-64
2022/07/18 11:15:13;;;;;;;0.35;0.35;;;;;;;21.77;69.11;100891.44;5044295;28;20477;-63
2022/07/18 11:17:51;;;;;;;1.85;1.75;;;;;;;21.60;67.89;100890.41;5044326;28;20017;-63
2022/07/18 11:20:25;;;;;;;0.38;0.38;;;;;;;21.42;69.17;100878.94;5044240;28;20018;-64
2022/07/18 11:22:51;;;;;;;0.25;0.25;;;;;;;21.43;70.72;100883.28;5044159;28;20029;-63
2022/07/18 11:25:17;;;;;;;0.65;0.65;;;;;;;21.44;69.59;100882.34;5043964;28;20374;-63
2022/07/18 11:27:43;;;;;;;0.10;0.10;;;;;;;21.55;69.82;100889.78;5043898;28;20029;-63